Terminal Aerodrome Forecast
Issued by NWS

Home | Current Version | Previous Version | Text Only | Print | Product List | Glossary On
Versions: 1 2 3 4 5 6 7 8 9 10 11 12 13 14 15 16 17 18
000
FTUS43 KDLH 270500
TAFHIB
TAF
KHIB 270524Z 2706/2806 35008KT P6SM -SN OVC015
     FM271400 32005KT P6SM OVC015
     FM272000 25007KT P6SM BKN023 BKN050
     FM280100 26006KT P6SM -SN OVC017=

USA.gov is the U.S. government's official web portal to all federal, state and local government web resources and services.